createdAt,value
2022-09-15T00:00:36.629Z,15.99
2022-09-15T00:03:04.368Z,16.00
2022-09-15T00:05:32.274Z,15.99
2022-09-15T00:07:59.951Z,15.99
2022-09-15T00:10:28.745Z,15.98
2022-09-15T00:12:57.818Z,15.97
2022-09-15T00:15:25.399Z,15.96
2022-09-15T00:17:53.691Z,15.97
2022-09-15T00:20:22.152Z,15.95
2022-09-15T00:22:49.871Z,15.93
2022-09-15T00:25:17.518Z,15.93
2022-09-15T00:27:45.127Z,15.92
2022-09-15T00:30:14.265Z,15.92
2022-09-15T00:32:41.878Z,15.89
2022-09-15T00:35:09.924Z,15.88
2022-09-15T00:37:37.703Z,15.88
2022-09-15T00:40:05.657Z,15.87
2022-09-15T00:42:33.861Z,15.86
2022-09-15T00:45:02.539Z,15.84
2022-09-15T00:47:39.354Z,15.84
2022-09-15T00:50:09.723Z,15.82
2022-09-15T00:52:40.159Z,15.82
2022-09-15T00:55:10.196Z,15.80
2022-09-15T00:57:40.382Z,15.79
2022-09-15T01:00:09.621Z,15.78
2022-09-15T01:02:39.097Z,15.77
2022-09-15T01:05:09.139Z,15.74
2022-09-15T01:07:38.614Z,15.74
2022-09-15T01:10:07.593Z,15.71
2022-09-15T01:12:35.215Z,15.71
2022-09-15T01:15:02.803Z,15.69
2022-09-15T01:17:38.088Z,15.68
2022-09-15T01:20:32.950Z,15.67
2022-09-15T01:23:19.725Z,15.65
2022-09-15T01:26:00.231Z,15.63
2022-09-15T01:28:35.970Z,15.61
2022-09-15T01:31:07.936Z,15.59
2022-09-15T01:33:41.491Z,15.57
2022-09-15T01:36:13.527Z,15.55
2022-09-15T01:38:50.989Z,15.53
2022-09-15T01:41:19.767Z,15.51
2022-09-15T01:43:51.538Z,15.49
2022-09-15T01:46:21.763Z,15.47
2022-09-15T01:48:52.380Z,15.46
2022-09-15T01:51:20.641Z,15.43
2022-09-15T01:53:48.570Z,15.42
2022-09-15T01:56:16.267Z,15.39
2022-09-15T01:58:43.976Z,15.38
2022-09-15T02:01:14.744Z,15.36
2022-09-15T02:03:46.072Z,15.35
2022-09-15T02:06:17.982Z,15.33
2022-09-15T02:08:49.844Z,15.31
2022-09-15T02:11:19.300Z,15.30
2022-09-15T02:13:49.219Z,15.27
2022-09-15T02:16:19.963Z,15.26
2022-09-15T02:19:11.155Z,15.24
2022-09-15T02:21:42.813Z,15.21
2022-09-15T02:24:15.819Z,15.19
2022-09-15T02:26:44.159Z,15.18
2022-09-15T02:29:14.168Z,15.15
2022-09-15T02:31:42.938Z,15.14
2022-09-15T02:34:14.786Z,15.11
2022-09-15T02:36:43.136Z,15.08
2022-09-15T02:39:13.416Z,15.07
2022-09-15T02:41:41.553Z,15.05
2022-09-15T02:44:09.492Z,15.02
2022-09-15T02:46:37.591Z,15.00
2022-09-15T02:49:05.201Z,14.99
2022-09-15T02:51:34.208Z,14.98
2022-09-15T02:54:01.737Z,14.96
2022-09-15T02:56:29.322Z,14.95
2022-09-15T02:58:56.897Z,14.93
2022-09-15T03:01:31.725Z,14.93
2022-09-15T03:03:59.920Z,14.91
2022-09-15T03:06:34.236Z,14.91
2022-09-15T03:09:04.771Z,14.89
2022-09-15T03:11:32.468Z,14.88
2022-09-15T03:14:00.703Z,14.87
2022-09-15T03:16:29.042Z,14.85
2022-09-15T03:18:57.004Z,14.83
2022-09-15T03:21:24.855Z,14.82
2022-09-15T03:23:52.696Z,14.80
2022-09-15T03:26:21.678Z,14.79
2022-09-15T03:28:49.346Z,14.75
2022-09-15T03:31:17.299Z,14.73
2022-09-15T03:33:44.890Z,14.73
2022-09-15T03:36:12.475Z,14.71
2022-09-15T03:38:40.042Z,14.71
2022-09-15T03:41:08.913Z,14.70
2022-09-15T03:43:38.570Z,14.68
2022-09-15T03:46:07.070Z,14.67
2022-09-15T03:48:35.811Z,14.68
2022-09-15T03:51:03.372Z,14.67
2022-09-15T03:53:32.312Z,14.67
2022-09-15T03:56:07.814Z,14.67
2022-09-15T03:58:35.481Z,14.67
2022-09-15T04:01:04.767Z,14.67
2022-09-15T04:03:32.725Z,14.67
2022-09-15T04:06:00.346Z,14.66
2022-09-15T04:08:28.128Z,14.66
2022-09-15T04:10:55.779Z,14.65
2022-09-15T04:13:27.919Z,14.65
2022-09-15T04:16:01.052Z,14.65
2022-09-15T04:18:30.718Z,14.64
2022-09-15T04:21:00.196Z,14.64
2022-09-15T04:23:28.067Z,14.64
2022-09-15T04:25:56.854Z,14.64
2022-09-15T04:28:24.626Z,14.66
2022-09-15T04:30:52.243Z,14.66
2022-09-15T04:33:20.281Z,14.67
2022-09-15T04:35:49.300Z,14.68
2022-09-15T04:38:16.890Z,14.68
2022-09-15T04:40:44.479Z,14.69
2022-09-15T04:43:14.009Z,14.69
2022-09-15T04:45:48.568Z,14.69
2022-09-15T04:48:16.862Z,14.70
2022-09-15T04:50:44.395Z,14.70
2022-09-15T04:53:13.453Z,14.70
2022-09-15T04:55:41.105Z,14.72
2022-09-15T04:58:09.534Z,14.71
2022-09-15T05:00:42.211Z,14.72
2022-09-15T05:03:10.107Z,14.72
2022-09-15T05:05:38.126Z,14.71
2022-09-15T05:08:06.075Z,14.72
2022-09-15T05:10:35.077Z,14.73
2022-09-15T05:13:02.905Z,14.74
2022-09-15T05:15:30.465Z,14.73
2022-09-15T05:17:59.284Z,14.74
2022-09-15T05:20:27.020Z,14.76
2022-09-15T05:22:55.000Z,14.77
2022-09-15T05:25:22.984Z,14.76
2022-09-15T05:27:51.899Z,14.79
2022-09-15T05:33:07.177Z,14.81
2022-09-15T05:35:34.785Z,14.82
2022-09-15T05:38:02.640Z,14.83
2022-09-15T05:40:30.345Z,14.83
2022-09-15T05:42:59.399Z,14.86
2022-09-15T05:45:26.927Z,14.85
2022-09-15T05:47:54.535Z,14.86
2022-09-15T05:50:22.105Z,14.87
2022-09-15T05:52:52.020Z,14.88
2022-09-15T05:55:19.641Z,14.89
2022-09-15T05:57:47.219Z,14.90
2022-09-15T06:00:16.552Z,14.91
2022-09-15T06:02:44.246Z,14.92
2022-09-15T06:05:11.865Z,14.93
2022-09-15T06:07:39.542Z,14.93
2022-09-15T06:10:07.823Z,14.95
2022-09-15T06:12:35.454Z,14.96
2022-09-15T06:15:03.134Z,14.98
2022-09-15T06:17:34.077Z,14.99
2022-09-15T06:20:01.694Z,15.01
2022-09-15T06:22:29.287Z,15.02
2022-09-15T06:24:56.927Z,15.04
2022-09-15T06:27:24.863Z,15.05
2022-09-15T06:29:52.529Z,15.06
2022-09-15T06:32:20.044Z,15.07
2022-09-15T06:34:49.335Z,15.09
2022-09-15T06:37:17.310Z,15.12
2022-09-15T06:39:44.875Z,15.14
2022-09-15T06:42:14.022Z,15.16
2022-09-15T06:44:42.529Z,15.18
2022-09-15T06:47:10.454Z,15.20
2022-09-15T06:49:38.159Z,15.21
2022-09-15T06:52:07.177Z,15.24
2022-09-15T06:54:34.813Z,15.25
2022-09-15T06:57:02.407Z,15.28
2022-09-15T06:59:30.010Z,15.29
2022-09-15T07:02:02.646Z,15.30
2022-09-15T07:04:32.404Z,15.33
2022-09-15T07:06:59.924Z,15.35
2022-09-15T07:09:28.935Z,15.36
2022-09-15T07:11:56.524Z,15.40
2022-09-15T07:14:24.136Z,15.41
2022-09-15T07:16:51.969Z,15.44
2022-09-15T07:19:19.605Z,15.46
2022-09-15T07:21:47.159Z,15.48
2022-09-15T07:24:14.921Z,15.50
2022-09-15T07:26:44.135Z,15.52
2022-09-15T07:29:12.183Z,15.54
2022-09-15T07:31:39.981Z,15.56
2022-09-15T07:34:08.624Z,15.57
2022-09-15T07:36:36.201Z,15.59
2022-09-15T07:39:04.847Z,15.61
2022-09-15T07:41:32.799Z,15.62
2022-09-15T07:44:02.267Z,15.64
2022-09-15T07:46:31.375Z,15.66
2022-09-15T07:48:59.037Z,15.68
2022-09-15T07:51:26.869Z,15.69
2022-09-15T07:53:54.991Z,15.72
2022-09-15T07:56:23.868Z,15.75
2022-09-15T07:58:51.996Z,15.77
2022-09-15T08:01:22.412Z,15.80
2022-09-15T08:03:51.942Z,15.83
2022-09-15T08:06:20.476Z,15.85
2022-09-15T08:08:49.049Z,15.88
2022-09-15T08:11:19.010Z,15.91
2022-09-15T08:13:47.321Z,15.94
2022-09-15T08:16:16.123Z,15.97
2022-09-15T08:18:45.536Z,16.01
2022-09-15T08:21:14.835Z,16.05
2022-09-15T08:23:42.663Z,16.10
2022-09-15T08:26:14.134Z,16.16
2022-09-15T08:28:42.664Z,16.21
2022-09-15T08:31:11.432Z,16.27
2022-09-15T08:33:44.565Z,16.32
2022-09-15T08:36:14.650Z,16.36
2022-09-15T08:38:43.577Z,16.40
2022-09-15T08:41:14.398Z,16.44
2022-09-15T08:43:45.663Z,16.48
2022-09-15T08:46:16.977Z,16.51
2022-09-15T08:48:49.262Z,16.54
2022-09-15T08:51:22.456Z,16.57
2022-09-15T08:53:52.911Z,16.61
2022-09-15T08:56:23.646Z,16.65
2022-09-15T08:58:54.303Z,16.69
2022-09-15T09:01:28.213Z,16.73
2022-09-15T09:04:07.854Z,16.78
2022-09-15T09:06:38.056Z,16.83
2022-09-15T09:09:16.110Z,16.88
2022-09-15T09:11:58.576Z,16.92
2022-09-15T09:14:32.226Z,16.97
2022-09-15T09:17:07.861Z,17.01
2022-09-15T09:19:43.710Z,17.09
2022-09-15T09:22:15.061Z,17.16
2022-09-15T09:24:44.329Z,17.22
2022-09-15T09:27:14.303Z,17.28
2022-09-15T09:29:49.631Z,17.37
2022-09-15T09:32:21.641Z,17.46
2022-09-15T09:34:55.868Z,17.53
2022-09-15T09:37:25.592Z,17.61
2022-09-15T09:39:53.206Z,17.67
2022-09-15T09:42:23.918Z,17.72
2022-09-15T09:44:52.382Z,17.76
2022-09-15T09:47:20.572Z,17.80
2022-09-15T09:49:48.880Z,17.84
2022-09-15T09:52:33.357Z,17.85
2022-09-15T09:55:03.244Z,17.87
2022-09-15T09:57:32.478Z,17.89
2022-09-15T10:00:00.111Z,17.92
2022-09-15T10:02:28.122Z,17.95
2022-09-15T10:04:56.642Z,17.97
2022-09-15T10:07:25.896Z,18.00
2022-09-15T10:09:55.399Z,18.01
2022-09-15T10:12:26.388Z,18.03
2022-09-15T10:14:55.615Z,18.05
2022-09-15T10:17:24.144Z,18.07
2022-09-15T10:19:54.087Z,18.10
2022-09-15T10:22:23.978Z,18.12
2022-09-15T10:24:51.751Z,18.14
2022-09-15T10:27:21.073Z,18.17
2022-09-15T10:29:50.226Z,18.19
2022-09-15T10:32:25.389Z,18.22
2022-09-15T10:35:00.251Z,18.25
2022-09-15T10:37:30.721Z,18.28
2022-09-15T10:39:59.775Z,18.32
2022-09-15T10:42:36.061Z,18.35
2022-09-15T10:45:12.108Z,18.39
2022-09-15T10:47:49.121Z,18.43
2022-09-15T10:50:18.148Z,18.48
2022-09-15T10:52:56.717Z,18.51
2022-09-15T10:55:51.137Z,18.53
2022-09-15T10:58:25.188Z,18.57
2022-09-15T11:00:59.778Z,18.58
2022-09-15T11:03:41.068Z,18.59
2022-09-15T11:06:14.785Z,18.60
2022-09-15T11:08:47.110Z,18.58
2022-09-15T11:11:18.620Z,18.59
2022-09-15T11:13:58.655Z,18.59
2022-09-15T11:16:31.556Z,18.58
2022-09-15T11:19:10.142Z,18.59
2022-09-15T11:21:39.682Z,18.61
2022-09-15T11:24:24.921Z,18.62
2022-09-15T11:26:53.643Z,18.64
2022-09-15T11:29:24.113Z,18.67
2022-09-15T11:31:55.699Z,18.69
2022-09-15T11:34:26.169Z,18.70
2022-09-15T11:36:57.405Z,18.71
2022-09-15T11:39:29.014Z,18.72
2022-09-15T11:42:01.094Z,18.71
2022-09-15T11:44:31.554Z,18.69
2022-09-15T11:47:08.791Z,18.69
2022-09-15T11:49:39.693Z,18.67
2022-09-15T11:52:12.263Z,18.65
2022-09-15T11:54:44.172Z,18.63
2022-09-15T11:57:16.339Z,18.61
2022-09-15T11:59:47.946Z,18.58
2022-09-15T12:02:21.252Z,18.56
2022-09-15T12:05:05.008Z,18.54
2022-09-15T12:07:34.775Z,18.51
2022-09-15T12:10:07.006Z,18.49
2022-09-15T12:12:36.220Z,18.48
2022-09-15T12:15:03.938Z,18.47
2022-09-15T12:17:36.562Z,18.47
2022-09-15T12:20:07.198Z,18.46
2022-09-15T12:22:40.140Z,18.45
2022-09-15T12:25:12.870Z,18.45
2022-09-15T12:27:40.526Z,18.44
2022-09-15T12:30:30.046Z,18.43
2022-09-15T12:32:59.061Z,18.43
2022-09-15T12:35:33.461Z,18.41
2022-09-15T12:38:01.583Z,18.39
2022-09-15T12:40:34.412Z,18.39
2022-09-15T12:43:03.170Z,18.36
2022-09-15T12:45:32.241Z,18.34
2022-09-15T12:48:03.662Z,18.32
2022-09-15T12:50:32.845Z,18.29
2022-09-15T12:53:01.944Z,18.27
2022-09-15T12:55:32.005Z,18.25
2022-09-15T12:58:01.147Z,18.22
2022-09-15T13:00:30.289Z,18.18
2022-09-15T13:02:58.435Z,18.15
2022-09-15T13:05:50.472Z,18.12
2022-09-15T13:08:43.773Z,18.08
2022-09-15T13:11:13.546Z,18.04
2022-09-15T13:13:44.600Z,18.01
2022-09-15T13:16:15.771Z,17.98
2022-09-15T13:18:44.426Z,17.94
2022-09-15T13:21:15.047Z,17.90
2022-09-15T13:23:48.001Z,17.86
2022-09-15T13:26:18.368Z,17.83
2022-09-15T13:28:50.444Z,17.79
2022-09-15T13:31:27.282Z,17.76
2022-09-15T13:40:04.157Z,17.66
2022-09-15T13:42:36.395Z,17.64
2022-09-15T13:45:19.266Z,17.62
2022-09-15T13:47:52.150Z,17.62
2022-09-15T13:50:23.046Z,17.61
2022-09-15T13:53:03.998Z,17.60
2022-09-15T13:55:35.241Z,17.59
2022-09-15T14:00:58.609Z,17.58
2022-09-15T14:03:28.514Z,17.59
2022-09-15T14:05:56.475Z,17.59
2022-09-15T14:08:25.809Z,17.57
2022-09-15T14:10:56.152Z,17.58
2022-09-15T14:13:26.579Z,17.59
2022-09-15T14:15:57.599Z,17.58
2022-09-15T14:18:25.233Z,17.58
2022-09-15T14:20:59.736Z,17.57
2022-09-15T14:23:27.480Z,17.56
2022-09-15T14:25:58.973Z,17.56
2022-09-15T14:28:31.543Z,17.55
2022-09-15T14:30:59.745Z,17.55
2022-09-15T14:33:35.527Z,17.54
2022-09-15T14:36:12.953Z,17.52
2022-09-15T14:38:41.209Z,17.52
2022-09-15T14:41:19.081Z,17.51
2022-09-15T14:43:46.741Z,17.50
2022-09-15T14:46:15.324Z,17.49
2022-09-15T14:48:43.212Z,17.48
2022-09-15T14:51:14.932Z,17.47
2022-09-15T14:53:44.330Z,17.47
2022-09-15T14:56:15.977Z,17.48
2022-09-15T14:58:47.326Z,17.47
2022-09-15T15:01:17.609Z,17.48
2022-09-15T15:03:49.014Z,17.49
2022-09-15T15:06:34.325Z,17.48
2022-09-15T15:09:04.165Z,17.49
2022-09-15T15:11:32.988Z,17.50
2022-09-15T15:14:03.222Z,17.50
2022-09-15T15:16:32.089Z,17.49
2022-09-15T15:19:00.020Z,17.50
2022-09-15T15:21:45.356Z,17.48
2022-09-15T15:24:20.529Z,17.49
2022-09-15T15:26:48.978Z,17.50
2022-09-15T15:29:40.328Z,17.50
2022-09-15T15:32:11.648Z,17.51
2022-09-15T15:34:39.607Z,17.50
2022-09-15T15:37:15.713Z,17.50
2022-09-15T15:39:46.738Z,17.50
2022-09-15T15:42:15.990Z,17.50
2022-09-15T15:44:58.944Z,17.50
2022-09-15T15:47:29.784Z,17.50
2022-09-15T15:50:15.863Z,17.51
2022-09-15T15:52:44.112Z,17.50
2022-09-15T15:55:14.444Z,17.50
2022-09-15T15:57:42.150Z,17.50
2022-09-15T16:00:20.940Z,17.50
2022-09-15T16:02:50.785Z,17.50
2022-09-15T16:05:18.914Z,17.49
2022-09-15T16:07:47.723Z,17.48
2022-09-15T16:10:16.735Z,17.49
2022-09-15T16:12:44.446Z,17.48
2022-09-15T16:15:13.169Z,17.48
2022-09-15T16:17:45.940Z,17.46
2022-09-15T16:20:16.859Z,17.48
2022-09-15T16:22:44.697Z,17.47
2022-09-15T16:25:14.463Z,17.45
2022-09-15T16:27:42.218Z,17.46
2022-09-15T16:30:12.026Z,17.46
2022-09-15T16:32:40.459Z,17.47
2022-09-15T16:35:18.714Z,17.46
2022-09-15T16:37:47.737Z,17.45
2022-09-15T16:40:15.634Z,17.46
2022-09-15T16:42:43.356Z,17.44
2022-09-15T16:45:17.051Z,17.46
2022-09-15T16:47:44.731Z,17.44
2022-09-15T16:50:13.089Z,17.45
2022-09-15T16:52:40.725Z,17.45
2022-09-15T16:55:17.968Z,17.45
2022-09-15T16:57:45.569Z,17.45
2022-09-15T17:00:13.928Z,17.44
2022-09-15T17:02:41.872Z,17.44
2022-09-15T17:05:14.490Z,17.43
2022-09-15T17:07:42.191Z,17.40
2022-09-15T17:10:09.979Z,17.40
2022-09-15T17:12:39.334Z,17.39
2022-09-15T17:15:24.918Z,17.38
2022-09-15T17:17:52.554Z,17.36
2022-09-15T17:20:20.599Z,17.35
2022-09-15T17:22:48.858Z,17.34
2022-09-15T17:25:25.294Z,17.33
2022-09-15T17:27:54.553Z,17.32
2022-09-15T17:30:22.710Z,17.31
2022-09-15T17:32:50.692Z,17.30
2022-09-15T17:35:19.425Z,17.29
2022-09-15T17:37:47.300Z,17.27
2022-09-15T17:40:15.180Z,17.26
2022-09-15T17:42:43.365Z,17.24
2022-09-15T17:45:16.645Z,17.23
2022-09-15T17:47:44.421Z,17.21
2022-09-15T17:50:11.998Z,17.19
2022-09-15T17:52:39.696Z,17.18
2022-09-15T17:55:12.301Z,17.15
2022-09-15T17:57:39.910Z,17.13
2022-09-15T18:00:08.820Z,17.12
2022-09-15T18:02:38.567Z,17.09
2022-09-15T18:05:07.706Z,17.06
2022-09-15T18:07:35.294Z,17.04
2022-09-15T18:10:02.891Z,17.00
2022-09-15T18:12:30.468Z,16.98
2022-09-15T18:14:58.093Z,16.96
2022-09-15T18:17:25.735Z,16.94
2022-09-15T18:19:54.633Z,16.91
2022-09-15T18:22:23.684Z,16.91
2022-09-15T18:24:51.259Z,16.88
2022-09-15T18:27:18.801Z,16.87
2022-09-15T18:29:46.361Z,16.85
2022-09-15T18:32:13.937Z,16.85
2022-09-15T18:34:41.630Z,16.83
2022-09-15T18:37:10.549Z,16.83
2022-09-15T18:39:38.539Z,16.82
2022-09-15T18:42:06.252Z,16.81
2022-09-15T18:44:33.848Z,16.78
2022-09-15T18:47:01.435Z,16.79
2022-09-15T18:49:29.009Z,16.77
2022-09-15T18:51:56.609Z,16.76
2022-09-15T18:54:25.684Z,16.76
2022-09-15T18:56:53.266Z,16.73
2022-09-15T18:59:20.874Z,16.73
2022-09-15T19:01:48.583Z,16.71
2022-09-15T19:04:16.256Z,16.70
2022-09-15T19:06:43.809Z,16.69
2022-09-15T19:09:11.636Z,16.66
2022-09-15T19:11:40.627Z,16.66
2022-09-15T19:14:08.356Z,16.64
2022-09-15T19:16:56.632Z,16.62
2022-09-15T19:19:24.157Z,16.60
2022-09-15T19:21:51.929Z,16.58
2022-09-15T19:24:19.628Z,16.56
2022-09-15T19:26:48.559Z,16.56
2022-09-15T19:29:16.439Z,16.53
2022-09-15T19:31:44.111Z,16.53
2022-09-15T19:34:11.700Z,16.51
2022-09-15T19:36:39.312Z,16.49
2022-09-15T19:39:07.191Z,16.48
2022-09-15T19:41:34.791Z,16.47
2022-09-15T19:44:04.570Z,16.46
2022-09-15T19:46:32.204Z,16.44
2022-09-15T19:48:59.902Z,16.42
2022-09-15T19:51:27.527Z,16.41
2022-09-15T19:53:55.729Z,16.39
2022-09-15T19:56:26.091Z,16.40
2022-09-15T19:58:55.713Z,16.38
2022-09-15T20:01:25.530Z,16.37
2022-09-15T20:03:53.414Z,16.35
2022-09-15T20:06:21.439Z,16.33
2022-09-15T20:08:52.431Z,16.32
2022-09-15T20:11:20.495Z,16.31
2022-09-15T20:13:48.438Z,16.29
2022-09-15T20:16:17.686Z,16.26
2022-09-15T20:18:47.862Z,16.24
2022-09-15T20:21:22.162Z,16.22
2022-09-15T20:24:01.100Z,16.21
2022-09-15T20:26:29.686Z,16.20
2022-09-15T20:28:57.291Z,16.18
2022-09-15T20:31:25.862Z,16.17
2022-09-15T20:33:55.634Z,16.16
2022-09-15T20:36:24.260Z,16.15
2022-09-15T20:38:52.880Z,16.14
2022-09-15T20:41:22.692Z,16.12
2022-09-15T20:43:50.792Z,16.13
2022-09-15T20:46:19.482Z,16.11
2022-09-15T20:48:47.647Z,16.09
2022-09-15T20:51:17.484Z,16.08
2022-09-15T20:53:46.049Z,16.07
2022-09-15T20:56:14.115Z,16.06
2022-09-15T20:58:42.203Z,16.05
2022-09-15T21:01:10.652Z,16.03
2022-09-15T21:03:39.353Z,16.02
2022-09-15T21:06:08.218Z,16.00
2022-09-15T21:08:37.555Z,15.98
2022-09-15T21:11:06.243Z,15.97
2022-09-15T21:13:36.144Z,15.94
2022-09-15T21:16:06.280Z,15.92
2022-09-15T21:18:35.036Z,15.90
2022-09-15T21:21:03.596Z,15.88
2022-09-15T21:23:33.286Z,15.87
2022-09-15T21:26:02.970Z,15.84
2022-09-15T21:28:30.969Z,15.83
2022-09-15T21:31:02.236Z,15.81
2022-09-15T21:33:30.025Z,15.79
2022-09-15T21:36:05.036Z,15.77
2022-09-15T21:38:32.760Z,15.75
2022-09-15T21:41:00.390Z,15.72
2022-09-15T21:43:31.965Z,15.72
2022-09-15T21:45:59.867Z,15.70
2022-09-15T21:48:28.473Z,15.69
2022-09-15T21:50:56.160Z,15.68
2022-09-15T21:53:23.816Z,15.66
2022-09-15T21:55:52.491Z,15.66
2022-09-15T21:58:20.778Z,15.65
2022-09-15T22:00:50.355Z,15.64
2022-09-15T22:03:18.385Z,15.64
2022-09-15T22:05:46.880Z,15.63
2022-09-15T22:08:16.070Z,15.63
2022-09-15T22:10:44.324Z,15.62
2022-09-15T22:13:12.559Z,15.62
2022-09-15T22:15:40.164Z,15.61
2022-09-15T22:18:09.259Z,15.60
2022-09-15T22:20:37.106Z,15.59
2022-09-15T22:23:04.735Z,15.57
2022-09-15T22:25:33.789Z,15.57
2022-09-15T22:28:01.415Z,15.57
2022-09-15T22:30:28.986Z,15.56
2022-09-15T22:32:56.576Z,15.55
2022-09-15T22:35:25.771Z,15.53
2022-09-15T22:37:53.354Z,15.52
2022-09-15T22:40:20.994Z,15.52
2022-09-15T22:42:48.812Z,15.50
2022-09-15T22:45:17.603Z,15.48
2022-09-15T22:47:45.232Z,15.48
2022-09-15T22:50:12.819Z,15.47
2022-09-15T22:52:41.748Z,15.46
2022-09-15T22:55:09.563Z,15.45
2022-09-15T22:57:39.581Z,15.43
2022-09-15T23:00:07.867Z,15.43
2022-09-15T23:02:35.647Z,15.42
2022-09-15T23:05:03.225Z,15.41
2022-09-15T23:07:31.043Z,15.40
2022-09-15T23:10:00.109Z,15.39
2022-09-15T23:12:30.619Z,15.37
2022-09-15T23:14:58.390Z,15.38
2022-09-15T23:17:27.461Z,15.37
2022-09-15T23:19:55.232Z,15.36
2022-09-15T23:22:23.064Z,15.37
2022-09-15T23:24:50.702Z,15.37
2022-09-15T23:27:19.953Z,15.37
2022-09-15T23:29:47.518Z,15.35
2022-09-15T23:32:15.097Z,15.34
2022-09-15T23:34:42.772Z,15.34
2022-09-15T23:37:10.339Z,15.32
2022-09-15T23:39:37.920Z,15.33
2022-09-15T23:42:05.552Z,15.32
2022-09-15T23:44:34.452Z,15.31
2022-09-15T23:47:02.173Z,15.30
2022-09-15T23:49:29.777Z,15.29
2022-09-15T23:51:57.352Z,15.27
2022-09-15T23:54:24.971Z,15.27
2022-09-15T23:56:52.601Z,15.24
2022-09-15T23:59:20.364Z,15.25
